createdAt,value
2018-09-06T00:00:50.523Z,15.97
2018-09-06T00:03:21.170Z,16.63
2018-09-06T00:05:51.777Z,19.50
2018-09-06T00:08:22.550Z,16.70
2018-09-06T00:10:54.097Z,19.30
2018-09-06T00:13:24.708Z,25.73
2018-09-06T00:15:55.297Z,23.33
2018-09-06T00:18:26.006Z,17.80
2018-09-06T00:20:56.795Z,15.97
2018-09-06T00:23:27.084Z,14.63
2018-09-06T00:25:57.485Z,16.87
2018-09-06T00:28:27.896Z,17.53
2018-09-06T00:30:58.337Z,20.37
2018-09-06T00:33:28.877Z,21.20
2018-09-06T00:35:59.738Z,18.33
2018-09-06T00:38:30.351Z,17.50
2018-09-06T00:41:00.637Z,17.03
2018-09-06T00:43:31.267Z,16.43
2018-09-06T00:46:03.307Z,16.20
2018-09-06T00:48:33.699Z,18.27
2018-09-06T00:51:04.295Z,24.43
2018-09-06T00:53:35.170Z,15.97
2018-09-06T00:56:06.195Z,25.57
2018-09-06T00:58:36.574Z,20.37
2018-09-06T01:01:07.042Z,19.10
2018-09-06T01:03:41.468Z,16.57
2018-09-06T01:06:12.030Z,18.83
2018-09-06T01:08:42.619Z,15.77
2018-09-06T01:11:13.290Z,21.90
2018-09-06T01:13:44.209Z,15.83
2018-09-06T01:16:14.837Z,18.80
2018-09-06T01:18:45.415Z,29.97
2018-09-06T01:21:15.968Z,24.40
2018-09-06T01:23:46.265Z,24.13
2018-09-06T01:26:16.896Z,17.73
2018-09-06T01:28:47.464Z,17.07
2018-09-06T01:31:19.027Z,20.90
2018-09-06T01:33:49.569Z,17.83
2018-09-06T01:36:25.223Z,21.10
2018-09-06T01:38:55.583Z,22.80
2018-09-06T01:41:26.119Z,18.53
2018-09-06T01:43:56.674Z,19.47
2018-09-06T01:46:27.614Z,17.30
2018-09-06T01:48:58.696Z,21.73
2018-09-06T01:51:29.304Z,21.13
2018-09-06T01:54:00.041Z,25.70
2018-09-06T01:56:31.267Z,18.13
2018-09-06T01:59:01.857Z,20.03
2018-09-06T02:01:33.484Z,16.90
2018-09-06T02:04:04.404Z,21.20
2018-09-06T02:06:34.971Z,19.33
2018-09-06T02:09:08.529Z,16.37
2018-09-06T02:11:40.867Z,18.73
2018-09-06T02:14:11.481Z,21.77
2018-09-06T02:16:42.970Z,16.43
2018-09-06T02:19:13.662Z,15.40
2018-09-06T02:21:45.644Z,15.77
2018-09-06T02:24:16.267Z,20.37
2018-09-06T02:26:47.164Z,17.87
2018-09-06T02:29:17.763Z,15.17
2018-09-06T02:31:48.399Z,15.87
2018-09-06T02:34:19.351Z,17.50
2018-09-06T02:36:49.914Z,19.00
2018-09-06T02:39:20.558Z,16.73
2018-09-06T02:41:51.128Z,17.97
2018-09-06T02:44:21.888Z,17.63
2018-09-06T02:46:52.478Z,20.23
2018-09-06T02:49:28.344Z,22.07
2018-09-06T02:51:58.609Z,16.70
2018-09-06T02:54:29.186Z,17.73
2018-09-06T02:56:59.475Z,19.20
2018-09-06T02:59:30.832Z,17.53
2018-09-06T03:02:01.505Z,26.20
2018-09-06T03:04:32.452Z,20.77
2018-09-06T03:07:03.188Z,21.00
2018-09-06T03:09:33.772Z,18.53
2018-09-06T03:12:06.599Z,19.23
2018-09-06T03:14:36.926Z,19.53
2018-09-06T03:17:07.531Z,24.80
2018-09-06T03:19:38.399Z,21.47
2018-09-06T03:22:09.289Z,28.63
2018-09-06T03:24:39.823Z,18.70
2018-09-06T03:27:10.736Z,26.60
2018-09-06T03:29:41.000Z,18.00
2018-09-06T03:32:12.397Z,21.57
2018-09-06T03:34:43.460Z,23.30
2018-09-06T03:37:13.980Z,17.87
2018-09-06T03:39:48.195Z,17.93
2018-09-06T03:42:18.948Z,17.00
2018-09-06T03:44:49.333Z,27.43
2018-09-06T03:47:19.903Z,29.33
2018-09-06T03:49:50.201Z,27.23
2018-09-06T03:52:20.741Z,23.13
2018-09-06T03:54:51.348Z,17.83
2018-09-06T03:57:21.893Z,18.37
2018-09-06T03:59:52.540Z,17.20
2018-09-06T04:02:23.269Z,21.17
2018-09-06T04:04:53.580Z,18.60
2018-09-06T04:07:30.407Z,21.70
2018-09-06T04:10:01.579Z,24.40
2018-09-06T04:12:41.680Z,21.93
2018-09-06T04:15:15.510Z,28.33
2018-09-06T04:17:46.249Z,24.40
2018-09-06T04:20:17.160Z,21.37
2018-09-06T04:22:51.272Z,19.90
2018-09-06T04:25:21.815Z,22.40
2018-09-06T04:27:52.373Z,26.13
2018-09-06T04:30:22.960Z,25.80
2018-09-06T04:32:53.624Z,28.77
2018-09-06T04:35:24.050Z,27.03
2018-09-06T04:37:55.687Z,28.53
2018-09-06T04:40:26.336Z,20.40
2018-09-06T04:42:56.960Z,28.53
2018-09-06T04:45:27.262Z,26.87
2018-09-06T04:47:57.880Z,30.20
2018-09-06T04:50:28.554Z,22.47
2018-09-06T04:52:58.805Z,26.30
2018-09-06T04:55:29.287Z,25.43
2018-09-06T04:58:00.140Z,21.83
2018-09-06T05:00:31.737Z,27.53
2018-09-06T05:03:02.457Z,30.43
2018-09-06T05:05:32.833Z,22.43
2018-09-06T05:08:03.474Z,25.20
2018-09-06T05:10:34.156Z,26.33
2018-09-06T05:13:04.730Z,29.90
2018-09-06T05:15:35.476Z,27.77
2018-09-06T05:18:07.176Z,25.07
2018-09-06T05:20:37.884Z,29.60
2018-09-06T05:23:08.204Z,31.20
2018-09-06T05:25:38.768Z,31.00
2018-09-06T05:28:09.400Z,27.70
2018-09-06T05:30:40.297Z,24.20
2018-09-06T05:33:10.726Z,25.03
2018-09-06T05:35:41.263Z,23.93
2018-09-06T05:38:11.555Z,30.97
2018-09-06T05:40:42.190Z,28.03
2018-09-06T05:43:12.707Z,24.90
2018-09-06T05:45:43.975Z,26.80
2018-09-06T05:48:14.476Z,33.83
2018-09-06T05:50:45.160Z,35.70
2018-09-06T05:53:15.692Z,25.40
2018-09-06T05:55:46.636Z,36.13
2018-09-06T05:58:17.410Z,35.47
2018-09-06T06:00:49.365Z,33.33
2018-09-06T06:03:20.102Z,25.40
2018-09-06T06:05:50.454Z,28.53
2018-09-06T06:08:32.024Z,35.17
2018-09-06T06:11:02.461Z,24.30
2018-09-06T06:13:33.054Z,25.97
2018-09-06T06:16:03.745Z,24.73
2018-09-06T06:18:34.248Z,35.83
2018-09-06T06:21:05.129Z,24.60
2018-09-06T06:23:35.747Z,24.83
2018-09-06T06:26:06.990Z,34.00
2018-09-06T06:28:37.404Z,24.60
2018-09-06T06:31:07.965Z,27.40
2018-09-06T06:33:38.409Z,22.53
2018-09-06T06:36:08.703Z,26.23
2018-09-06T06:38:39.229Z,22.00
2018-09-06T06:41:10.241Z,34.00
2018-09-06T06:43:41.076Z,28.43
2018-09-06T06:46:11.591Z,25.23
2018-09-06T06:48:42.126Z,36.50
2018-09-06T06:51:12.768Z,23.63
2018-09-06T06:53:44.348Z,18.53
2018-09-06T06:56:14.882Z,23.00
2018-09-06T06:58:45.392Z,17.50
2018-09-06T07:01:15.975Z,27.77
2018-09-06T07:03:46.505Z,23.37
2018-09-06T07:06:16.980Z,27.80
2018-09-06T07:08:47.195Z,15.60
2018-09-06T07:11:17.736Z,21.13
2018-09-06T07:13:48.249Z,20.30
2018-09-06T07:16:18.921Z,27.50
2018-09-06T07:18:49.256Z,24.93
2018-09-06T07:21:19.892Z,32.83
2018-09-06T07:23:50.415Z,23.80
2018-09-06T07:26:20.941Z,29.00
2018-09-06T07:28:51.203Z,27.23
2018-09-06T07:31:22.004Z,23.17
2018-09-06T07:33:52.976Z,53.43
2018-09-06T07:36:23.909Z,29.23
2018-09-06T07:38:54.204Z,24.23
2018-09-06T07:41:24.494Z,29.53
2018-09-06T07:43:59.050Z,22.30
2018-09-06T07:46:29.340Z,23.97
2018-09-06T07:48:59.587Z,28.70
2018-09-06T07:51:31.832Z,26.57
2018-09-06T07:54:02.531Z,25.07
2018-09-06T07:56:33.208Z,20.23
2018-09-06T07:59:03.764Z,26.50
2018-09-06T08:01:34.432Z,18.07
2018-09-06T08:04:05.014Z,37.50
2018-09-06T08:06:35.352Z,36.43
2018-09-06T08:09:09.195Z,22.83
2018-09-06T08:11:40.089Z,20.97
2018-09-06T08:14:10.639Z,14.77
2018-09-06T08:16:41.244Z,18.70
2018-09-06T08:19:12.527Z,24.33
2018-09-06T08:21:43.417Z,15.40
2018-09-06T08:24:14.242Z,18.73
2018-09-06T08:26:46.141Z,19.70
2018-09-06T08:29:16.865Z,22.77
2018-09-06T08:31:47.086Z,16.83
2018-09-06T08:34:17.694Z,20.13
2018-09-06T08:36:47.988Z,31.07
2018-09-06T08:39:18.372Z,18.23
2018-09-06T08:41:48.880Z,16.57
2018-09-06T08:44:19.556Z,21.60
2018-09-06T08:46:50.158Z,23.33
2018-09-06T08:49:20.693Z,19.30
2018-09-06T08:51:50.985Z,18.43
2018-09-06T08:54:21.389Z,19.53
2018-09-06T08:56:51.953Z,23.20
2018-09-06T08:59:22.641Z,21.73
2018-09-06T09:01:53.177Z,18.57
2018-09-06T09:04:24.146Z,24.33
2018-09-06T09:06:55.269Z,17.03
2018-09-06T09:09:25.551Z,18.80
2018-09-06T09:11:57.417Z,13.57
2018-09-06T09:14:27.943Z,14.73
2018-09-06T09:16:58.728Z,19.20
2018-09-06T09:19:30.982Z,17.97
2018-09-06T09:22:04.496Z,14.57
2018-09-06T09:24:35.232Z,11.80
2018-09-06T09:27:06.528Z,16.33
2018-09-06T09:29:36.872Z,14.97
2018-09-06T09:32:07.820Z,19.30
2018-09-06T09:34:38.084Z,12.73
2018-09-06T09:37:09.644Z,15.50
2018-09-06T09:39:40.372Z,13.03
2018-09-06T09:42:10.967Z,29.37
2018-09-06T09:44:41.599Z,12.60
2018-09-06T09:49:41.837Z,19.60
2018-09-06T09:52:12.324Z,11.57
2018-09-06T09:54:42.912Z,16.93
2018-09-06T09:57:13.236Z,12.57
2018-09-06T09:59:43.835Z,11.17
2018-09-06T10:02:19.396Z,15.20
2018-09-06T10:04:56.467Z,12.43
2018-09-06T10:07:32.312Z,10.40
2018-09-06T10:10:02.831Z,10.60
2018-09-06T10:12:38.615Z,17.27
2018-09-06T10:15:14.833Z,10.37
2018-09-06T10:17:45.792Z,11.30
2018-09-06T10:20:16.303Z,10.10
2018-09-06T10:22:48.192Z,17.90
2018-09-06T10:25:18.684Z,11.67
2018-09-06T10:27:49.322Z,9.70
2018-09-06T10:30:21.323Z,10.03
2018-09-06T10:32:52.332Z,9.67
2018-09-06T10:35:22.896Z,12.20
2018-09-06T10:37:53.951Z,13.47
2018-09-06T10:40:25.115Z,10.50
2018-09-06T10:42:56.144Z,12.53
2018-09-06T10:45:26.923Z,10.50
2018-09-06T10:47:57.869Z,10.10
2018-09-06T10:50:29.343Z,12.30
2018-09-06T10:52:59.848Z,10.80
2018-09-06T10:55:31.219Z,12.30
2018-09-06T10:58:02.156Z,11.67
2018-09-06T11:00:32.948Z,13.57
2018-09-06T11:03:03.696Z,11.13
2018-09-06T11:05:33.948Z,11.63
2018-09-06T11:08:04.365Z,14.20
2018-09-06T11:10:34.744Z,26.50
2018-09-06T11:13:05.015Z,12.23
2018-09-06T11:15:35.540Z,13.30
2018-09-06T11:18:05.833Z,13.97
2018-09-06T11:20:36.580Z,16.67
2018-09-06T11:23:06.883Z,17.60
2018-09-06T11:25:37.561Z,11.77
2018-09-06T11:28:08.804Z,17.63
2018-09-06T11:30:39.497Z,27.97
2018-09-06T11:33:09.973Z,11.00
2018-09-06T11:35:40.515Z,17.87
2018-09-06T11:38:10.818Z,14.27
2018-09-06T11:40:41.463Z,14.83
2018-09-06T11:43:11.759Z,13.17
2018-09-06T11:45:42.319Z,17.37
2018-09-06T11:48:12.728Z,12.00
2018-09-06T11:50:43.043Z,22.20
2018-09-06T11:53:13.372Z,11.97
2018-09-06T11:55:44.352Z,13.50
2018-09-06T11:58:14.597Z,14.27
2018-09-06T12:00:45.699Z,12.37
2018-09-06T12:03:16.286Z,11.27
2018-09-06T12:05:46.538Z,12.27
2018-09-06T12:08:31.640Z,20.23
2018-09-06T12:11:02.195Z,14.70
2018-09-06T12:13:32.725Z,12.13
2018-09-06T12:16:03.308Z,11.47
2018-09-06T12:18:33.551Z,16.03
2018-09-06T12:21:03.847Z,11.70
2018-09-06T12:23:34.376Z,14.17
2018-09-06T12:26:04.916Z,13.30
2018-09-06T12:28:35.425Z,14.90
2018-09-06T12:31:06.632Z,20.13
2018-09-06T12:33:37.210Z,13.60
2018-09-06T12:36:08.271Z,12.43
2018-09-06T12:38:39.397Z,12.00
2018-09-06T12:41:10.624Z,10.63
2018-09-06T12:43:41.189Z,13.93
2018-09-06T12:46:12.231Z,11.67
2018-09-06T12:48:43.256Z,10.33
2018-09-06T12:51:13.813Z,13.93
2018-09-06T12:53:44.867Z,11.97
2018-09-06T12:56:15.404Z,11.67
2018-09-06T12:58:46.936Z,10.40
2018-09-06T13:01:17.205Z,15.67
2018-09-06T13:03:47.479Z,10.50
2018-09-06T13:06:18.087Z,14.40
2018-09-06T13:08:48.819Z,12.67
2018-09-06T13:11:19.489Z,11.43
2018-09-06T13:13:50.071Z,14.40
2018-09-06T13:16:20.960Z,15.73
2018-09-06T13:18:51.276Z,11.30
2018-09-06T13:21:21.939Z,11.17
2018-09-06T13:23:52.487Z,12.50
2018-09-06T13:26:23.089Z,13.20
2018-09-06T13:28:53.875Z,10.70
2018-09-06T13:31:24.509Z,10.97
2018-09-06T13:33:55.806Z,13.13
2018-09-06T13:36:26.326Z,11.37
2018-09-06T13:38:56.994Z,12.03
2018-09-06T13:41:27.528Z,17.60
2018-09-06T13:43:57.784Z,12.47
2018-09-06T13:46:28.305Z,15.57
2018-09-06T13:48:59.598Z,11.53
2018-09-06T13:51:29.887Z,12.13
2018-09-06T13:54:00.392Z,12.77
2018-09-06T13:56:32.486Z,11.83
2018-09-06T13:59:02.878Z,15.20
2018-09-06T14:01:33.501Z,10.30
2018-09-06T14:04:03.837Z,10.97
2018-09-06T14:06:34.122Z,11.20
2018-09-06T14:09:05.144Z,11.00
2018-09-06T14:11:36.842Z,9.77
2018-09-06T14:14:07.250Z,13.33
2018-09-06T14:16:37.659Z,12.13
2018-09-06T14:19:08.414Z,11.13
2018-09-06T14:21:40.138Z,10.53
2018-09-06T14:24:10.570Z,11.37
2018-09-06T14:26:41.252Z,12.63
2018-09-06T14:29:11.895Z,10.47
2018-09-06T14:31:42.432Z,12.77
2018-09-06T14:34:13.035Z,15.43
2018-09-06T14:36:43.342Z,10.40
2018-09-06T14:39:14.233Z,10.37
2018-09-06T14:41:44.801Z,10.07
2018-09-06T14:44:15.063Z,15.20
2018-09-06T14:46:45.359Z,25.40
2018-09-06T14:49:15.924Z,11.10
2018-09-06T14:51:46.484Z,11.93
2018-09-06T14:54:16.898Z,12.37
2018-09-06T14:56:47.314Z,10.83
2018-09-06T14:59:17.968Z,14.20
2018-09-06T15:01:48.565Z,12.67
2018-09-06T15:04:19.123Z,10.17
2018-09-06T15:06:49.690Z,10.83
2018-09-06T15:09:20.263Z,12.40
2018-09-06T15:11:51.286Z,8.50
2018-09-06T15:14:21.616Z,15.90
2018-09-06T15:16:52.139Z,9.87
2018-09-06T15:19:22.486Z,11.80
2018-09-06T15:21:53.159Z,12.07
2018-09-06T15:24:23.805Z,14.20
2018-09-06T15:26:54.363Z,16.30
2018-09-06T15:29:25.629Z,15.57
2018-09-06T15:31:56.238Z,14.30
2018-09-06T15:34:26.830Z,12.00
2018-09-06T15:36:57.625Z,15.10
2018-09-06T15:39:28.171Z,11.20
2018-09-06T15:42:00.232Z,12.90
2018-09-06T15:44:30.541Z,10.37
2018-09-06T15:47:01.107Z,16.70
2018-09-06T15:49:31.463Z,11.87
2018-09-06T15:52:03.038Z,10.07
2018-09-06T15:54:33.277Z,11.90
2018-09-06T15:57:03.844Z,10.07
2018-09-06T15:59:34.391Z,9.80
2018-09-06T16:02:05.318Z,12.77
2018-09-06T16:04:35.612Z,15.73
2018-09-06T16:07:05.861Z,18.27
2018-09-06T16:09:36.193Z,11.93
2018-09-06T16:12:06.924Z,11.97
2018-09-06T16:14:37.764Z,10.33
2018-09-06T16:17:08.689Z,10.00
2018-09-06T16:19:39.163Z,9.87
2018-09-06T16:22:09.835Z,11.43
2018-09-06T16:24:40.222Z,11.30
2018-09-06T16:27:10.608Z,9.80
2018-09-06T16:29:41.482Z,10.97
2018-09-06T16:32:12.096Z,10.27
2018-09-06T16:34:42.720Z,10.23
2018-09-06T16:37:13.075Z,13.53
2018-09-06T16:39:44.314Z,14.20
2018-09-06T16:42:14.860Z,11.70
2018-09-06T16:44:46.388Z,9.60
2018-09-06T16:47:16.913Z,13.90
2018-09-06T16:49:47.420Z,15.13
2018-09-06T16:52:17.994Z,10.60
2018-09-06T16:54:48.310Z,11.40
2018-09-06T16:57:18.855Z,10.00
2018-09-06T16:59:49.471Z,10.07
2018-09-06T17:02:20.073Z,9.07
2018-09-06T17:04:50.649Z,11.33
2018-09-06T17:07:20.956Z,11.50
2018-09-06T17:09:51.540Z,12.67
2018-09-06T17:12:21.753Z,10.23
2018-09-06T17:14:52.319Z,10.90
2018-09-06T17:17:22.867Z,13.30
2018-09-06T17:19:53.474Z,11.40
2018-09-06T17:22:24.170Z,10.87
2018-09-06T17:24:54.712Z,9.03
2018-09-06T17:27:25.377Z,11.37
2018-09-06T17:29:56.935Z,10.33
2018-09-06T17:32:27.556Z,11.13
2018-09-06T17:34:58.244Z,12.77
2018-09-06T17:37:28.783Z,16.40
2018-09-06T17:39:59.213Z,14.63
2018-09-06T17:42:31.052Z,15.57
2018-09-06T17:45:01.807Z,11.77
2018-09-06T17:47:45.769Z,11.63
2018-09-06T17:50:16.556Z,12.50
2018-09-06T17:52:47.087Z,14.87
2018-09-06T17:55:17.056Z,14.93
2018-09-06T17:57:47.184Z,14.90
2018-09-06T18:00:17.818Z,10.73
2018-09-06T18:02:48.366Z,13.60
2018-09-06T18:05:18.972Z,17.10
2018-09-06T18:07:49.200Z,13.93
2018-09-06T18:10:19.831Z,14.53
2018-09-06T18:12:50.451Z,20.63
2018-09-06T18:15:20.967Z,12.50
2018-09-06T18:17:52.127Z,14.90
2018-09-06T18:20:23.172Z,20.07
2018-09-06T18:22:53.464Z,19.93
2018-09-06T18:25:24.351Z,12.70
2018-09-06T18:27:54.623Z,16.93
2018-09-06T18:30:25.320Z,16.53
2018-09-06T18:32:55.952Z,26.63
2018-09-06T18:35:26.300Z,16.40
2018-09-06T18:37:56.776Z,22.20
2018-09-06T18:40:27.412Z,24.53
2018-09-06T18:42:57.988Z,21.23
2018-09-06T18:45:29.298Z,19.93
2018-09-06T18:48:00.152Z,31.57
2018-09-06T18:50:30.552Z,19.27
2018-09-06T18:53:01.129Z,19.00
2018-09-06T18:55:32.563Z,19.57
2018-09-06T18:58:03.571Z,23.00
2018-09-06T19:00:34.171Z,13.80
2018-09-06T19:03:04.761Z,21.43
2018-09-06T19:05:35.267Z,17.53
2018-09-06T19:08:05.878Z,15.90
2018-09-06T19:10:36.481Z,19.63
2018-09-06T19:13:07.391Z,23.17
2018-09-06T19:15:38.868Z,18.73
2018-09-06T19:18:09.180Z,16.90
2018-09-06T19:20:39.812Z,17.90
2018-09-06T19:23:10.343Z,18.63
2018-09-06T19:25:40.670Z,22.13
2018-09-06T19:28:11.220Z,16.83
2018-09-06T19:30:42.011Z,22.73
2018-09-06T19:33:13.321Z,19.07
2018-09-06T19:35:44.571Z,19.80
2018-09-06T19:38:15.148Z,15.53
2018-09-06T19:40:45.667Z,22.77
2018-09-06T19:43:16.225Z,30.67
2018-09-06T19:45:46.968Z,16.53
2018-09-06T19:48:17.537Z,24.30
2018-09-06T19:50:47.736Z,22.13
2018-09-06T19:53:18.337Z,19.20
2018-09-06T19:55:49.115Z,14.50
2018-09-06T19:58:19.627Z,21.53
2018-09-06T20:00:49.877Z,17.90
2018-09-06T20:03:21.047Z,15.93
2018-09-06T20:05:51.583Z,19.73
2018-09-06T20:08:22.230Z,19.60
2018-09-06T20:10:52.797Z,17.20
2018-09-06T20:13:23.460Z,18.93
2018-09-06T20:15:54.107Z,17.70
2018-09-06T20:18:24.842Z,22.80
2018-09-06T20:20:55.697Z,16.23
2018-09-06T20:23:26.315Z,23.33
2018-09-06T20:25:57.509Z,21.70
2018-09-06T20:28:28.050Z,26.60
2018-09-06T20:30:58.729Z,28.93
2018-09-06T20:33:29.499Z,24.47
2018-09-06T20:35:59.922Z,27.33
2018-09-06T20:38:30.536Z,24.53
2018-09-06T20:41:01.073Z,19.37
2018-09-06T20:43:31.362Z,21.13
2018-09-06T20:46:02.227Z,17.53
2018-09-06T20:48:32.587Z,21.90
2018-09-06T20:51:03.805Z,17.13
2018-09-06T20:53:34.681Z,20.43
2018-09-06T20:56:05.384Z,21.00
2018-09-06T20:58:36.056Z,18.03
2018-09-06T21:01:06.892Z,18.40
2018-09-06T21:03:37.717Z,18.80
2018-09-06T21:06:09.124Z,15.70
2018-09-06T21:08:39.860Z,23.53
2018-09-06T21:11:10.718Z,23.53
2018-09-06T21:13:41.972Z,23.70
2018-09-06T21:16:13.666Z,17.90
2018-09-06T21:18:44.056Z,17.10
2018-09-06T21:21:14.791Z,18.20
2018-09-06T21:23:45.330Z,22.90
2018-09-06T21:26:16.208Z,17.77
2018-09-06T21:28:46.684Z,21.10
2018-09-06T21:31:17.256Z,26.10
2018-09-06T21:33:47.826Z,23.87
2018-09-06T21:36:18.122Z,17.50
2018-09-06T21:38:49.147Z,24.63
2018-09-06T21:41:19.689Z,18.10
2018-09-06T21:43:50.163Z,25.23
2018-09-06T21:46:20.786Z,17.40
2018-09-06T21:48:51.340Z,24.60
2018-09-06T21:51:22.139Z,18.40
2018-09-06T21:53:52.548Z,21.50
2018-09-06T21:56:22.777Z,23.90
2018-09-06T21:58:53.630Z,21.00
2018-09-06T22:01:24.545Z,24.13
2018-09-06T22:04:08.267Z,18.40
2018-09-06T22:06:39.215Z,23.37
2018-09-06T22:09:11.721Z,20.07
2018-09-06T22:11:41.967Z,20.33
2018-09-06T22:14:12.851Z,17.53
2018-09-06T22:16:44.075Z,26.80
2018-09-06T22:19:15.684Z,22.70
2018-09-06T22:21:46.542Z,24.30
2018-09-06T22:24:17.082Z,23.93
2018-09-06T22:26:47.672Z,21.30
2018-09-06T22:29:18.487Z,34.23
2018-09-06T22:31:49.311Z,31.10
2018-09-06T22:34:20.127Z,26.07
2018-09-06T22:36:50.669Z,19.03
2018-09-06T22:39:23.318Z,25.37
2018-09-06T22:41:54.001Z,28.13
2018-09-06T22:44:24.548Z,27.27
2018-09-06T22:46:55.017Z,23.60
2018-09-06T22:49:25.914Z,22.97
2018-09-06T22:51:57.252Z,19.17
2018-09-06T22:54:28.353Z,23.00
2018-09-06T22:56:59.009Z,18.73
2018-09-06T22:59:30.337Z,17.90
2018-09-06T23:02:00.794Z,19.40
2018-09-06T23:04:31.623Z,21.50
2018-09-06T23:07:02.291Z,21.27
2018-09-06T23:09:33.666Z,19.63
2018-09-06T23:12:04.617Z,27.20
2018-09-06T23:14:35.540Z,23.33
2018-09-06T23:17:06.351Z,21.90
2018-09-06T23:19:36.895Z,21.33
2018-09-06T23:22:07.437Z,31.87
2018-09-06T23:24:41.345Z,26.73
2018-09-06T23:27:11.903Z,20.83
2018-09-06T23:29:42.435Z,26.07
2018-09-06T23:32:13.048Z,24.30
2018-09-06T23:34:43.608Z,18.53
2018-09-06T23:37:14.139Z,22.03
2018-09-06T23:39:44.988Z,19.70
2018-09-06T23:42:15.536Z,21.70
2018-09-06T23:44:46.089Z,17.63
2018-09-06T23:47:16.620Z,17.33
2018-09-06T23:49:47.208Z,24.20
2018-09-06T23:52:18.232Z,21.50
2018-09-06T23:54:49.025Z,25.10
2018-09-06T23:57:19.727Z,19.87
2018-09-06T23:59:50.460Z,29.40
